»·PEaware :: N693CD KBUR-KSBA

N693CD :: KBUR-KSBA

FLIGHT INFORMATION

Flight Status: Arrived
Operator: Privately registered:
United States
More flights under this callsign
Pilot: Christopher S. (17259)
Aircraft: CESSNA 172 SKYHAWK
(C172)
More flights by this aircraft type
Origin: KBUR Bob Hope-Burbank
United States
Destination: KSBA Santa Barbara Mun
United States
More flights between these airports :: More routes between these airports
Route: +GLD ST DEP UTL ADVSD
File this flight plan on PilotEdge
Remarks:
Altitude:
(Current/Filed)
6,500ft
Speed:
(Current/Filed)
0kts
Departed: 25-Jul-20 10:09 PM
Arrived: 25-Jul-20 10:57 PM
Distance/Time
Traveled:
75nm/0:48
Distance/Time
To Go:
Arrived

Flight Plot

Page will automatically refresh every two minutes.


Map Options




Map Legend


Flown Route
Filed Route
Departure Airport
Arrival Airport
Navaid (VOR, NDB)
Fix

Horizontal Profiles

Position Reports

Time Latitude Longitude Heading Altitude Ground
Speed
25-Jul-20 21:57 34.196506 -118.368374 90 734ft 0kts
25-Jul-20 21:59 34.196506 -118.368374 90 734ft 0kts
25-Jul-20 21:59 34.196506 -118.368374 90 734ft 0kts
25-Jul-20 22:00 34.196506 -118.368374 90 734ft 0kts
25-Jul-20 22:01 34.196506 -118.368374 90 734ft 0kts
25-Jul-20 22:03 34.196506 -118.368374 90 734ft 0kts
25-Jul-20 22:03 34.196505 -118.367961 89 734ft 3kts
25-Jul-20 22:04 34.196698 -118.366714 17 734ft 0kts
25-Jul-20 22:05 34.196934 -118.368229 270 734ft 13kts
25-Jul-20 22:06 34.197122 -118.368950 322 734ft 0kts
25-Jul-20 22:07 34.197122 -118.368950 322 734ft 0kts
25-Jul-20 22:08 34.197798 -118.362080 90 754ft 81kts
25-Jul-20 22:09 34.211496 -118.352418 323 1610ft 104kts
25-Jul-20 22:10 34.230634 -118.375439 311 2405ft 89kts
25-Jul-20 22:11 34.246288 -118.400906 301 2989ft 95kts
25-Jul-20 22:12 34.259927 -118.429240 299 3589ft 93kts
25-Jul-20 22:13 34.272525 -118.457351 303 4175ft 90kts
25-Jul-20 22:14 34.279196 -118.487267 280 4792ft 94kts
25-Jul-20 22:15 34.284751 -118.519400 280 5417ft 107kts
25-Jul-20 22:16 34.291057 -118.556328 281 5951ft 113kts
25-Jul-20 22:17 34.297466 -118.592668 281 6484ft 118kts
25-Jul-20 22:18 34.305532 -118.635351 281 6504ft 136kts
25-Jul-20 22:19 34.314430 -118.679532 280 6503ft 136kts
25-Jul-20 22:20 34.323809 -118.723683 281 6504ft 134kts
25-Jul-20 22:21 34.333346 -118.766984 281 6503ft 132kts
25-Jul-20 22:22 34.342927 -118.809600 281 6502ft 130kts
25-Jul-20 22:23 34.352584 -118.851818 281 6502ft 130kts
25-Jul-20 22:24 34.362426 -118.894266 288 6503ft 131kts
25-Jul-20 22:25 34.367314 -118.938002 281 6503ft 130kts
25-Jul-20 22:26 34.371747 -118.981564 281 6503ft 130kts
25-Jul-20 22:27 34.376054 -119.024951 281 6503ft 129kts
25-Jul-20 22:28 34.380240 -119.067996 281 6503ft 128kts
25-Jul-20 22:29 34.384347 -119.110810 281 6503ft 128kts
25-Jul-20 22:30 34.388425 -119.153845 282 6503ft 128kts
25-Jul-20 22:31 34.392452 -119.196845 282 6503ft 128kts
25-Jul-20 22:32 34.396425 -119.239792 282 6503ft 128kts
25-Jul-20 22:33 34.400346 -119.282704 282 6503ft 128kts
25-Jul-20 22:34 34.404333 -119.325597 282 6501ft 127kts
25-Jul-20 22:35 34.408508 -119.368366 282 6499ft 127kts
25-Jul-20 22:36 34.412862 -119.410882 282 6498ft 126kts
25-Jul-20 22:37 34.417445 -119.453308 282 6289ft 125kts
25-Jul-20 22:38 34.421698 -119.491368 282 6038ft 104kts
25-Jul-20 22:39 34.428349 -119.526769 282 6435ft 123kts
25-Jul-20 22:40 34.438399 -119.567901 283 6430ft 125kts
25-Jul-20 22:41 34.448167 -119.608867 275 6177ft 127kts
25-Jul-20 22:42 34.453076 -119.649218 274 5549ft 116kts
25-Jul-20 22:43 34.457809 -119.687954 273 4841ft 114kts
25-Jul-20 22:44 34.462348 -119.725817 273 4054ft 109kts
25-Jul-20 22:45 34.465625 -119.763901 273 3243ft 114kts
25-Jul-20 22:46 34.460805 -119.801042 243 2388ft 114kts
25-Jul-20 22:47 34.449305 -119.832370 243 1424ft 97kts
25-Jul-20 22:48 34.438540 -119.861279 242 894ft 92kts
25-Jul-20 22:49 34.425383 -119.889088 200 892ft 95kts
25-Jul-20 22:50 34.429327 -119.911257 6 889ft 100kts
25-Jul-20 22:51 34.435043 -119.884739 93 894ft 95kts
25-Jul-20 22:52 34.439028 -119.852272 82 894ft 96kts
25-Jul-20 22:53 34.443287 -119.823183 82 890ft 78kts
25-Jul-20 22:54 34.435880 -119.805439 194 887ft 75kts
25-Jul-20 22:55 34.428071 -119.825549 265 311ft 67kts
25-Jul-20 22:56 34.427481 -119.841514 186 16ft 4kts

Navigation Log

Ident Type
Flight plan parsing failed, navigation log unavailable